createdAt,value
2018-12-15T00:01:38.270Z,56.20
2018-12-15T00:04:09.076Z,56.30
2018-12-15T00:06:54.835Z,56.30
2018-12-15T00:09:23.689Z,56.30
2018-12-15T00:11:52.537Z,56.30
2018-12-15T00:14:21.389Z,56.30
2018-12-15T00:16:50.237Z,56.40
2018-12-15T00:19:19.135Z,56.40
2018-12-15T00:21:48.236Z,56.40
2018-12-15T00:24:17.084Z,56.30
2018-12-15T00:26:45.939Z,56.40
2018-12-15T00:29:14.799Z,56.40
2018-12-15T00:31:43.680Z,56.40
2018-12-15T00:34:13.243Z,56.40
2018-12-15T00:36:42.129Z,56.40
2018-12-15T00:39:10.995Z,56.40
2018-12-15T00:41:39.855Z,56.40
2018-12-15T00:44:08.699Z,56.40
2018-12-15T00:46:37.569Z,56.40
2018-12-15T00:49:06.433Z,56.40
2018-12-15T00:51:35.315Z,56.20
2018-12-15T00:54:04.169Z,56.30
2018-12-15T00:56:33.012Z,56.30
2018-12-15T00:59:01.876Z,56.30
2018-12-15T01:01:30.720Z,56.40
2018-12-15T01:03:59.580Z,56.40
2018-12-15T01:06:28.494Z,56.30
2018-12-15T01:08:57.348Z,56.40
2018-12-15T01:11:26.185Z,56.30
2018-12-15T01:13:55.033Z,56.30
2018-12-15T01:16:23.868Z,56.40
2018-12-15T01:18:52.731Z,56.30
2018-12-15T01:21:21.565Z,56.30
2018-12-15T01:23:50.493Z,56.30
2018-12-15T01:26:19.341Z,56.40
2018-12-15T01:28:48.216Z,56.40
2018-12-15T01:31:17.057Z,56.30
2018-12-15T01:33:45.888Z,56.30
2018-12-15T01:36:14.793Z,56.40
2018-12-15T01:38:43.668Z,56.40
2018-12-15T01:41:12.542Z,56.40
2018-12-15T01:43:41.397Z,56.40
2018-12-15T01:46:10.248Z,56.30
2018-12-15T01:48:40.079Z,56.60
2018-12-15T01:51:08.934Z,55.70
2018-12-15T01:53:37.769Z,55.50
2018-12-15T01:56:06.624Z,55.30
2018-12-15T01:58:35.469Z,55.30
2018-12-15T02:01:04.539Z,55.30
2018-12-15T02:03:33.393Z,55.40
2018-12-15T02:06:02.242Z,55.60
2018-12-15T02:08:31.100Z,55.80
2018-12-15T02:11:01.926Z,55.80
2018-12-15T02:13:30.772Z,56.50
2018-12-15T02:15:59.620Z,55.90
2018-12-15T02:18:28.471Z,56.00
2018-12-15T02:20:57.333Z,56.10
2018-12-15T02:23:26.187Z,56.00
2018-12-15T02:25:55.253Z,56.10
2018-12-15T02:28:24.103Z,56.00
2018-12-15T02:30:52.967Z,56.10
2018-12-15T02:33:21.874Z,56.10
2018-12-15T02:35:50.725Z,56.70
2018-12-15T02:38:20.137Z,56.20
2018-12-15T02:40:48.988Z,56.20
2018-12-15T02:43:17.845Z,56.10
2018-12-15T02:45:46.704Z,56.10
2018-12-15T02:48:15.566Z,56.20
2018-12-15T02:50:44.411Z,56.20
2018-12-15T02:53:13.256Z,56.20
2018-12-15T02:55:42.085Z,56.30
2018-12-15T02:58:10.947Z,56.30
2018-12-15T03:00:39.790Z,56.30
2018-12-15T03:03:09.692Z,56.20
2018-12-15T03:05:38.536Z,56.10
2018-12-15T03:08:07.397Z,56.20
2018-12-15T03:10:36.324Z,56.30
2018-12-15T03:13:05.193Z,56.40
2018-12-15T03:15:34.057Z,56.20
2018-12-15T03:18:02.903Z,56.20
2018-12-15T03:20:31.753Z,56.20
2018-12-15T03:23:00.592Z,56.30
2018-12-15T03:25:29.452Z,56.20
2018-12-15T03:27:59.066Z,56.20
2018-12-15T03:30:27.901Z,56.20
2018-12-15T03:32:56.773Z,56.30
2018-12-15T03:35:25.629Z,56.20
2018-12-15T03:37:54.482Z,56.30
2018-12-15T03:40:23.364Z,56.20
2018-12-15T03:42:52.263Z,57.00
2018-12-15T03:45:23.095Z,56.30
2018-12-15T03:47:56.179Z,56.20
2018-12-15T03:50:22.792Z,56.00
2018-12-15T03:52:51.645Z,55.80
2018-12-15T03:55:20.501Z,55.60
2018-12-15T03:57:50.207Z,55.30
2018-12-15T04:00:19.066Z,55.40
2018-12-15T04:02:47.914Z,55.50
2018-12-15T04:05:16.764Z,55.50
2018-12-15T04:07:45.634Z,55.60
2018-12-15T04:10:14.741Z,55.70
2018-12-15T04:12:43.592Z,55.80
2018-12-15T04:15:12.490Z,55.70
2018-12-15T04:17:42.086Z,55.90
2018-12-15T04:20:10.945Z,55.80
2018-12-15T04:22:40.020Z,55.90
2018-12-15T04:25:08.888Z,56.00
2018-12-15T04:27:37.748Z,56.10
2018-12-15T04:30:09.729Z,56.10
2018-12-15T04:32:44.924Z,56.10
2018-12-15T04:35:09.464Z,56.10
2018-12-15T04:37:38.328Z,56.10
2018-12-15T04:40:09.515Z,56.20
2018-12-15T04:42:38.438Z,56.20
2018-12-15T04:45:07.288Z,56.20
2018-12-15T04:47:36.155Z,56.20
2018-12-15T04:50:05.037Z,56.20
2018-12-15T04:52:34.597Z,56.30
2018-12-15T04:55:03.452Z,56.10
2018-12-15T04:57:32.303Z,56.20
2018-12-15T05:00:01.151Z,56.20
2018-12-15T05:02:30.004Z,56.20
2018-12-15T05:17:58.337Z,56.10
2018-12-15T05:20:27.212Z,56.20
2018-12-15T05:22:56.083Z,56.60
2018-12-15T05:25:24.940Z,56.60
2018-12-15T05:27:53.787Z,56.40
2018-12-15T05:30:23.042Z,56.50
2018-12-15T05:32:51.905Z,56.50
2018-12-15T05:35:20.764Z,56.40
2018-12-15T05:37:49.629Z,56.40
2018-12-15T05:40:18.505Z,56.40
2018-12-15T05:42:47.358Z,56.50
2018-12-15T05:45:16.220Z,56.40
2018-12-15T05:47:45.064Z,56.20
2018-12-15T05:50:13.913Z,56.00
2018-12-15T05:52:42.745Z,55.70
2018-12-15T05:55:11.605Z,55.50
2018-12-15T05:57:40.536Z,55.30
2018-12-15T06:00:09.397Z,55.30
2018-12-15T06:02:40.390Z,55.40
2018-12-15T06:05:10.322Z,55.50
2018-12-15T06:07:39.175Z,55.50
2018-12-15T06:10:08.124Z,55.80
2018-12-15T06:12:36.971Z,55.70
2018-12-15T06:15:06.663Z,55.80
2018-12-15T06:17:35.523Z,55.90
2018-12-15T06:20:05.035Z,55.80
2018-12-15T06:22:33.895Z,55.90
2018-12-15T06:25:02.724Z,55.90
2018-12-15T06:27:31.579Z,55.90
2018-12-15T06:30:00.420Z,56.00
2018-12-15T06:32:29.496Z,56.00
2018-12-15T06:34:58.336Z,56.00
2018-12-15T06:37:27.196Z,56.10
2018-12-15T06:39:56.044Z,56.20
2018-12-15T06:42:24.896Z,56.10
2018-12-15T06:44:53.749Z,56.10
2018-12-15T06:47:22.589Z,56.20
2018-12-15T06:49:51.445Z,56.20
2018-12-15T06:52:20.332Z,56.10
2018-12-15T06:54:49.180Z,56.10
2018-12-15T06:57:18.033Z,56.10
2018-12-15T06:59:46.988Z,56.20
2018-12-15T07:02:15.849Z,56.10
2018-12-15T07:04:44.723Z,56.20
2018-12-15T07:07:13.590Z,56.20
2018-12-15T07:09:42.441Z,56.10
2018-12-15T07:12:11.280Z,56.20
2018-12-15T07:14:40.128Z,56.20
2018-12-15T07:17:08.990Z,56.20
2018-12-15T07:19:37.840Z,56.00
2018-12-15T07:22:06.934Z,56.10
2018-12-15T07:24:35.799Z,56.00
2018-12-15T07:27:04.655Z,56.00
2018-12-15T07:29:33.527Z,56.10
2018-12-15T07:32:02.383Z,56.10
2018-12-15T07:34:31.453Z,56.20
2018-12-15T07:37:00.296Z,56.10
2018-12-15T07:39:29.154Z,56.20
2018-12-15T07:41:57.999Z,56.20
2018-12-15T07:44:26.856Z,56.00
2018-12-15T07:46:55.703Z,56.00
2018-12-15T07:49:24.592Z,56.00
2018-12-15T07:51:53.465Z,56.10
2018-12-15T07:54:22.339Z,56.10
2018-12-15T07:56:51.187Z,56.10
2018-12-15T07:59:20.065Z,56.10
2018-12-15T08:01:49.121Z,56.70
2018-12-15T08:04:17.960Z,56.10
2018-12-15T08:06:46.816Z,56.10
2018-12-15T08:09:15.669Z,56.10
2018-12-15T08:11:49.825Z,56.10
2018-12-15T08:14:18.837Z,56.10
2018-12-15T08:16:47.693Z,56.10
2018-12-15T08:19:16.761Z,56.10
2018-12-15T08:21:45.587Z,56.00
2018-12-15T08:24:14.472Z,55.90
2018-12-15T08:26:43.303Z,56.10
2018-12-15T08:29:12.172Z,56.10
2018-12-15T08:31:41.043Z,56.10
2018-12-15T08:34:09.903Z,56.10
2018-12-15T08:36:38.768Z,56.00
2018-12-15T08:39:08.243Z,56.10
2018-12-15T08:41:39.058Z,55.90
2018-12-15T08:44:07.915Z,55.90
2018-12-15T08:46:36.764Z,55.80
2018-12-15T08:49:05.636Z,56.10
2018-12-15T08:51:34.556Z,56.00
2018-12-15T08:54:03.454Z,56.10
2018-12-15T08:56:32.310Z,56.00
2018-12-15T08:59:01.167Z,55.90
2018-12-15T09:01:30.037Z,56.00
2018-12-15T09:03:58.917Z,56.00
2018-12-15T09:06:27.808Z,56.10
2018-12-15T09:08:56.701Z,55.90
2018-12-15T09:11:25.536Z,56.10
2018-12-15T09:13:54.372Z,55.90
2018-12-15T09:16:26.447Z,55.70
2018-12-15T09:18:54.115Z,56.00
2018-12-15T09:21:23.030Z,56.10
2018-12-15T09:23:51.883Z,56.00
2018-12-15T09:26:20.751Z,55.90
2018-12-15T09:28:49.615Z,56.00
2018-12-15T09:31:18.481Z,56.10
2018-12-15T09:33:47.380Z,55.90
2018-12-15T09:36:16.277Z,56.70
2018-12-15T09:38:45.128Z,56.00
2018-12-15T09:41:13.988Z,56.00
2018-12-15T09:43:42.844Z,55.80
2018-12-15T09:46:11.711Z,56.10
2018-12-15T09:48:40.569Z,55.90
2018-12-15T09:51:09.433Z,56.00
2018-12-15T09:53:38.282Z,56.10
2018-12-15T09:56:07.194Z,56.00
2018-12-15T09:58:38.024Z,56.00
2018-12-15T10:01:06.896Z,55.90
2018-12-15T10:03:35.753Z,56.10
2018-12-15T10:06:04.584Z,55.90
2018-12-15T10:08:33.456Z,55.80
2018-12-15T10:11:04.276Z,55.90
2018-12-15T10:13:33.144Z,55.80
2018-12-15T10:16:01.989Z,55.70
2018-12-15T10:18:30.827Z,55.70
2018-12-15T10:20:59.681Z,55.70
2018-12-15T10:23:28.598Z,55.60
2018-12-15T10:25:57.452Z,56.20
2018-12-15T10:28:26.319Z,56.10
2018-12-15T10:31:00.679Z,55.90
2018-12-15T10:33:29.541Z,55.60
2018-12-15T10:35:58.401Z,55.50
2018-12-15T10:38:27.269Z,55.70
2018-12-15T10:40:56.152Z,55.70
2018-12-15T10:43:25.013Z,55.90
2018-12-15T10:45:53.956Z,56.70
2018-12-15T10:48:23.772Z,55.50
2018-12-15T10:50:52.677Z,55.60
2018-12-15T10:53:21.559Z,55.70
2018-12-15T10:55:50.468Z,55.80
2018-12-15T10:58:21.285Z,55.70
2018-12-15T11:00:55.650Z,55.40
2018-12-15T11:03:25.492Z,55.50
2018-12-15T11:05:54.337Z,55.60
2018-12-15T11:08:23.222Z,55.60
2018-12-15T11:10:52.082Z,55.60
2018-12-15T11:13:20.969Z,55.50
2018-12-15T11:15:49.844Z,55.60
2018-12-15T11:18:18.725Z,55.30
2018-12-15T11:20:47.615Z,55.50
2018-12-15T11:23:16.493Z,55.20
2018-12-15T11:25:45.557Z,55.30
2018-12-15T11:28:14.491Z,55.50
2018-12-15T11:30:43.355Z,55.10
2018-12-15T11:33:12.229Z,55.50
2018-12-15T11:35:41.104Z,55.20
2018-12-15T11:38:09.952Z,54.40
2018-12-15T11:40:38.808Z,51.60
2018-12-15T11:43:07.677Z,50.40
2018-12-15T11:45:36.568Z,50.80
2018-12-15T11:48:05.467Z,51.10
2018-12-15T11:50:34.329Z,50.60
2018-12-15T11:53:03.192Z,50.90
2018-12-15T11:55:34.012Z,50.00
2018-12-15T11:58:02.872Z,48.30
2018-12-15T12:00:31.763Z,48.40
2018-12-15T12:03:00.632Z,47.30
2018-12-15T12:05:29.493Z,49.50
2018-12-15T12:07:58.426Z,48.60
2018-12-15T12:10:27.312Z,48.10
2018-12-15T12:12:56.224Z,48.80
2018-12-15T12:15:25.082Z,49.00
2018-12-15T12:17:53.976Z,49.40
2018-12-15T12:20:22.843Z,49.60
2018-12-15T12:22:51.711Z,49.80
2018-12-15T12:25:22.570Z,50.00
2018-12-15T12:27:53.377Z,50.10
2018-12-15T12:30:22.242Z,50.30
2018-12-15T12:32:51.111Z,50.40
2018-12-15T12:35:19.993Z,50.50
2018-12-15T12:37:48.847Z,50.50
2018-12-15T12:40:17.715Z,50.50
2018-12-15T12:42:46.580Z,50.60
2018-12-15T12:45:15.514Z,50.80
2018-12-15T12:47:44.376Z,50.80
2018-12-15T12:50:13.250Z,51.00
2018-12-15T12:52:42.098Z,51.00
2018-12-15T12:55:12.924Z,51.10
2018-12-15T12:57:41.780Z,51.00
2018-12-15T13:00:10.676Z,51.00
2018-12-15T13:02:39.543Z,51.30
2018-12-15T13:05:08.401Z,51.20
2018-12-15T13:07:37.257Z,51.30
2018-12-15T13:10:06.256Z,51.30
2018-12-15T13:12:35.124Z,51.20
2018-12-15T13:15:04.177Z,51.20
2018-12-15T13:17:34.124Z,51.30
2018-12-15T13:20:03.826Z,51.30
2018-12-15T13:22:33.424Z,51.40
2018-12-15T13:25:02.310Z,51.40
2018-12-15T13:27:31.174Z,51.20
2018-12-15T13:30:00.036Z,51.30
2018-12-15T13:32:29.044Z,51.40
2018-12-15T13:34:57.974Z,51.40
2018-12-15T13:37:26.831Z,51.60
2018-12-15T13:39:55.725Z,51.60
2018-12-15T13:42:24.615Z,51.40
2018-12-15T13:44:53.541Z,51.60
2018-12-15T13:47:22.397Z,51.80
2018-12-15T13:49:51.369Z,51.70
2018-12-15T13:52:20.272Z,52.10
2018-12-15T13:54:49.124Z,51.80
2018-12-15T13:57:17.978Z,52.10
2018-12-15T13:59:46.868Z,51.90
2018-12-15T14:02:15.732Z,52.00
2018-12-15T14:04:44.599Z,51.80
2018-12-15T14:07:13.486Z,52.20
2018-12-15T14:09:42.353Z,52.20
2018-12-15T14:12:11.229Z,52.30
2018-12-15T14:14:40.307Z,52.00
2018-12-15T14:17:09.148Z,51.80
2018-12-15T14:19:38.020Z,52.40
2018-12-15T14:22:07.080Z,52.20
2018-12-15T14:24:35.931Z,52.10
2018-12-15T14:27:04.799Z,52.50
2018-12-15T14:29:33.679Z,52.40
2018-12-15T14:32:02.535Z,52.40
2018-12-15T14:34:31.398Z,52.50
2018-12-15T14:37:00.255Z,52.50
2018-12-15T14:39:29.137Z,52.40
2018-12-15T14:41:58.013Z,53.10
2018-12-15T14:44:26.932Z,52.60
2018-12-15T14:46:55.814Z,52.40
2018-12-15T14:49:24.671Z,52.40
2018-12-15T14:51:53.543Z,52.50
2018-12-15T14:54:22.396Z,52.60
2018-12-15T14:56:51.253Z,52.80
2018-12-15T14:59:20.137Z,52.90
2018-12-15T15:01:49.020Z,52.80
2018-12-15T15:04:17.873Z,52.60
2018-12-15T15:06:46.761Z,52.40
2018-12-15T15:09:15.624Z,52.70
2018-12-15T15:11:44.520Z,52.70
2018-12-15T15:14:13.380Z,52.80
2018-12-15T15:16:42.248Z,52.90
2018-12-15T15:19:11.101Z,52.90
2018-12-15T15:21:40.023Z,52.70
2018-12-15T15:24:08.896Z,53.00
2018-12-15T15:26:37.758Z,52.80
2018-12-15T15:29:06.621Z,52.90
2018-12-15T15:31:35.479Z,52.70
2018-12-15T15:34:04.349Z,52.70
2018-12-15T15:36:35.156Z,52.70
2018-12-15T15:39:06.420Z,52.80
2018-12-15T15:41:35.313Z,53.00
2018-12-15T15:44:04.194Z,53.90
2018-12-15T15:46:33.140Z,53.00
2018-12-15T15:49:01.996Z,52.90
2018-12-15T15:51:30.867Z,53.10
2018-12-15T15:53:59.732Z,52.80
2018-12-15T15:56:28.613Z,52.60
2018-12-15T16:03:09.716Z,53.10
2018-12-15T16:05:38.570Z,52.40
2018-12-15T16:08:07.464Z,52.70
2018-12-15T16:10:36.538Z,52.60
2018-12-15T16:13:05.447Z,52.80
2018-12-15T16:15:34.367Z,52.80
2018-12-15T16:18:03.341Z,53.00
2018-12-15T16:20:32.961Z,52.90
2018-12-15T16:23:01.827Z,53.00
2018-12-15T16:25:30.727Z,53.00
2018-12-15T16:27:59.640Z,52.80
2018-12-15T16:30:28.490Z,52.90
2018-12-15T16:32:57.375Z,53.20
2018-12-15T16:35:26.246Z,53.00
2018-12-15T16:37:55.121Z,52.90
2018-12-15T16:40:24.021Z,52.90
2018-12-15T16:42:52.879Z,53.00
2018-12-15T16:45:21.950Z,53.20
2018-12-15T16:47:50.914Z,52.90
2018-12-15T16:50:19.764Z,52.80
2018-12-15T16:52:49.333Z,52.90
2018-12-15T16:55:18.429Z,53.00
2018-12-15T16:57:47.337Z,53.00
2018-12-15T17:00:16.193Z,53.00
2018-12-15T17:02:45.064Z,53.10
2018-12-15T17:05:13.908Z,53.00
2018-12-15T17:07:42.794Z,53.10
2018-12-15T17:10:11.928Z,53.80
2018-12-15T17:12:40.779Z,53.00
2018-12-15T17:15:09.691Z,53.10
2018-12-15T17:17:38.559Z,53.10
2018-12-15T17:20:09.005Z,53.10
2018-12-15T17:22:39.821Z,53.10
2018-12-15T17:25:09.133Z,53.20
2018-12-15T17:27:38.331Z,53.20
2018-12-15T17:30:09.337Z,53.30
2018-12-15T17:32:38.287Z,53.40
2018-12-15T17:35:08.109Z,53.20
2018-12-15T17:37:36.962Z,53.20
2018-12-15T17:40:07.928Z,53.30
2018-12-15T17:42:36.785Z,53.00
2018-12-15T17:45:06.970Z,52.90
2018-12-15T17:47:36.918Z,53.10
2018-12-15T17:50:07.817Z,53.20
2018-12-15T17:52:38.639Z,53.10
2018-12-15T17:55:08.225Z,53.10
2018-12-15T17:57:39.029Z,53.10
2018-12-15T18:00:10.411Z,53.20
2018-12-15T18:02:40.397Z,53.30
2018-12-15T18:05:09.261Z,53.10
2018-12-15T18:07:38.341Z,53.40
2018-12-15T18:10:08.759Z,53.40
2018-12-15T18:12:37.627Z,53.10
2018-12-15T18:15:07.205Z,53.20
2018-12-15T18:17:36.108Z,53.10
2018-12-15T18:20:05.526Z,53.00
2018-12-15T18:22:34.432Z,53.20
2018-12-15T18:25:05.854Z,53.20
2018-12-15T18:40:34.908Z,53.10
2018-12-15T18:43:03.823Z,53.50
2018-12-15T18:45:32.726Z,53.50
2018-12-15T18:48:01.584Z,53.50
2018-12-15T18:50:30.467Z,54.10
2018-12-15T18:52:59.357Z,53.40
2018-12-15T18:55:28.282Z,53.30
2018-12-15T18:57:57.170Z,53.30
2018-12-15T19:00:26.102Z,53.40
2018-12-15T19:02:54.947Z,53.50
2018-12-15T19:05:23.844Z,53.50
2018-12-15T19:07:52.898Z,53.40
2018-12-15T19:10:21.755Z,53.30
2018-12-15T19:12:50.632Z,53.50
2018-12-15T19:15:21.534Z,53.40
2018-12-15T19:17:50.444Z,53.30
2018-12-15T19:20:19.313Z,53.30
2018-12-15T19:22:48.199Z,53.30
2018-12-15T19:25:17.075Z,53.10
2018-12-15T19:27:45.969Z,53.40
2018-12-15T19:30:14.899Z,53.40
2018-12-15T19:32:44.863Z,53.30
2018-12-15T19:35:13.862Z,53.30
2018-12-15T19:37:42.789Z,53.50
2018-12-15T19:40:11.747Z,53.20
2018-12-15T19:42:40.594Z,53.30
2018-12-15T19:45:09.643Z,53.30
2018-12-15T19:47:38.492Z,53.40
2018-12-15T19:50:07.451Z,53.40
2018-12-15T19:52:37.260Z,53.30
2018-12-15T19:55:07.173Z,53.30
2018-12-15T19:57:36.074Z,53.30
2018-12-15T20:00:05.788Z,53.50
2018-12-15T20:02:36.618Z,53.40
2018-12-15T20:05:05.483Z,53.40
2018-12-15T20:07:34.412Z,53.50
2018-12-15T20:10:03.393Z,53.40
2018-12-15T20:12:32.266Z,53.40
2018-12-15T20:15:01.365Z,53.40
2018-12-15T20:17:30.246Z,53.40
2018-12-15T20:19:59.112Z,53.50
2018-12-15T20:22:27.993Z,53.50
2018-12-15T20:24:56.882Z,53.50
2018-12-15T20:27:25.780Z,53.30
2018-12-15T20:29:54.740Z,53.40
2018-12-15T20:32:23.630Z,53.60
2018-12-15T20:34:52.507Z,53.40
2018-12-15T20:37:21.387Z,53.50
2018-12-15T20:39:50.235Z,53.40
2018-12-15T20:42:19.093Z,53.50
2018-12-15T20:44:47.943Z,53.60
2018-12-15T20:47:16.812Z,53.70
2018-12-15T20:49:45.719Z,53.50
2018-12-15T20:52:14.570Z,53.40
2018-12-15T20:54:43.434Z,53.40
2018-12-15T20:57:12.280Z,53.30
2018-12-15T20:59:41.129Z,53.10
2018-12-15T21:02:09.976Z,53.00
2018-12-15T21:04:38.876Z,53.10
2018-12-15T21:07:07.831Z,53.10
2018-12-15T21:09:36.706Z,53.20
2018-12-15T21:12:05.615Z,53.30
2018-12-15T21:14:34.517Z,53.30
2018-12-15T21:17:03.467Z,53.20
2018-12-15T21:19:32.313Z,53.30
2018-12-15T21:22:01.167Z,53.40
2018-12-15T21:24:30.020Z,53.40
2018-12-15T21:26:58.916Z,53.30
2018-12-15T21:29:27.765Z,53.40
2018-12-15T21:31:57.039Z,52.90
2018-12-15T21:34:26.518Z,53.20
2018-12-15T21:36:55.379Z,53.40
2018-12-15T21:39:24.249Z,53.50
2018-12-15T21:41:53.143Z,53.50
2018-12-15T21:44:22.037Z,53.60
2018-12-15T21:46:50.949Z,53.60
2018-12-15T21:49:19.803Z,53.40
2018-12-15T21:51:48.638Z,53.60
2018-12-15T21:54:17.512Z,53.70
2018-12-15T21:56:46.368Z,53.60
2018-12-15T21:59:15.399Z,53.40
2018-12-15T22:01:44.260Z,53.50
2018-12-15T22:04:13.121Z,53.70
2018-12-15T22:06:41.973Z,53.40
2018-12-15T22:09:12.867Z,53.60
2018-12-15T22:11:41.711Z,53.50
2018-12-15T22:14:10.571Z,53.50
2018-12-15T22:16:39.657Z,53.70
2018-12-15T22:19:08.478Z,53.70
2018-12-15T22:21:38.089Z,53.80
2018-12-15T22:24:06.988Z,53.70
2018-12-15T22:26:35.841Z,53.80
2018-12-15T22:29:04.710Z,54.20
2018-12-15T22:31:34.517Z,53.70
2018-12-15T22:34:04.438Z,53.70
2018-12-15T22:36:33.285Z,53.60
2018-12-15T22:39:02.128Z,53.60
2018-12-15T22:41:32.039Z,53.60
2018-12-15T22:44:00.932Z,53.60
2018-12-15T22:46:29.781Z,53.60
2018-12-15T22:48:58.625Z,53.70
2018-12-15T22:51:27.516Z,53.70
2018-12-15T22:53:57.312Z,53.70
2018-12-15T22:56:26.156Z,53.70
2018-12-15T22:58:55.031Z,53.80
2018-12-15T23:01:23.880Z,53.60
2018-12-15T23:03:52.765Z,53.80
2018-12-15T23:06:21.651Z,53.80
2018-12-15T23:08:50.509Z,53.70
2018-12-15T23:11:19.359Z,53.70
2018-12-15T23:13:48.248Z,54.10
2018-12-15T23:16:17.076Z,54.00
2018-12-15T23:18:45.958Z,53.90
2018-12-15T23:21:14.832Z,53.80
2018-12-15T23:23:43.698Z,53.80
2018-12-15T23:26:12.609Z,53.50
2018-12-15T23:28:41.501Z,53.30
2018-12-15T23:31:11.245Z,53.40
2018-12-15T23:33:40.077Z,53.50
2018-12-15T23:36:08.921Z,53.40
2018-12-15T23:38:37.784Z,53.40
2018-12-15T23:41:06.637Z,53.60
2018-12-15T23:43:35.509Z,53.40
2018-12-15T23:46:04.356Z,53.50
2018-12-15T23:48:33.404Z,53.60
2018-12-15T23:51:02.268Z,53.80
2018-12-15T23:53:31.106Z,53.80
2018-12-15T23:56:01.908Z,53.60
2018-12-15T23:58:30.767Z,53.80
